sensor_id;sensor_type;location;lat;lon;timestamp;P1;durP1;ratioP1;P2;durP2;ratioP2
49592;SDS011;35499;51.482;4.264;2022-08-01T00:00:51;13.38;;;5.63;;
49592;SDS011;35499;51.482;4.264;2022-08-01T00:03:35;13.98;;;5.38;;
49592;SDS011;35499;51.482;4.264;2022-08-01T00:06:19;12.77;;;5.30;;
49592;SDS011;35499;51.482;4.264;2022-08-01T00:09:03;11.57;;;4.95;;
49592;SDS011;35499;51.482;4.264;2022-08-01T00:11:47;11.57;;;4.93;;
49592;SDS011;35499;51.482;4.264;2022-08-01T00:14:31;9.38;;;4.25;;
49592;SDS011;35499;51.482;4.264;2022-08-01T00:17:15;8.73;;;3.95;;
49592;SDS011;35499;51.482;4.264;2022-08-01T00:19:59;9.35;;;4.38;;
49592;SDS011;35499;51.482;4.264;2022-08-01T00:22:43;10.35;;;3.92;;
49592;SDS011;35499;51.482;4.264;2022-08-01T00:25:27;8.85;;;3.78;;
49592;SDS011;35499;51.482;4.264;2022-08-01T00:28:11;9.32;;;3.50;;
49592;SDS011;35499;51.482;4.264;2022-08-01T00:30:56;9.32;;;3.83;;
49592;SDS011;35499;51.482;4.264;2022-08-01T00:33:40;7.03;;;3.67;;
49592;SDS011;35499;51.482;4.264;2022-08-01T00:36:24;7.07;;;3.35;;
49592;SDS011;35499;51.482;4.264;2022-08-01T00:39:08;5.78;;;3.53;;
49592;SDS011;35499;51.482;4.264;2022-08-01T00:41:52;7.57;;;4.03;;
49592;SDS011;35499;51.482;4.264;2022-08-01T00:44:36;6.57;;;3.38;;
49592;SDS011;35499;51.482;4.264;2022-08-01T00:47:20;6.60;;;3.50;;
49592;SDS011;35499;51.482;4.264;2022-08-01T00:50:04;6.60;;;3.28;;
49592;SDS011;35499;51.482;4.264;2022-08-01T00:52:48;7.57;;;3.00;;
49592;SDS011;35499;51.482;4.264;2022-08-01T00:55:32;6.57;;;2.70;;
49592;SDS011;35499;51.482;4.264;2022-08-01T00:58:17;5.65;;;2.50;;
49592;SDS011;35499;51.482;4.264;2022-08-01T01:01:01;6.20;;;2.85;;
49592;SDS011;35499;51.482;4.264;2022-08-01T01:03:45;6.45;;;2.55;;
49592;SDS011;35499;51.482;4.264;2022-08-01T01:09:31;4.45;;;2.33;;
49592;SDS011;35499;51.482;4.264;2022-08-01T01:15:15;5.68;;;2.08;;
49592;SDS011;35499;51.482;4.264;2022-08-01T01:18:04;4.85;;;2.28;;
49592;SDS011;35499;51.482;4.264;2022-08-01T01:21:13;5.53;;;2.03;;
49592;SDS011;35499;51.482;4.264;2022-08-01T01:29:28;4.15;;;1.80;;
49592;SDS011;35499;51.482;4.264;2022-08-01T01:32:16;4.43;;;1.70;;
49592;SDS011;35499;51.482;4.264;2022-08-01T01:35:14;3.83;;;2.13;;
49592;SDS011;35499;51.482;4.264;2022-08-01T01:38:10;4.40;;;1.80;;
49592;SDS011;35499;51.482;4.264;2022-08-01T01:43:41;5.20;;;1.73;;
49592;SDS011;35499;51.482;4.264;2022-08-01T01:46:26;6.40;;;2.35;;
49592;SDS011;35499;51.482;4.264;2022-08-01T01:49:10;6.78;;;2.40;;
49592;SDS011;35499;51.482;4.264;2022-08-01T01:51:55;4.68;;;1.90;;
49592;SDS011;35499;51.482;4.264;2022-08-01T01:54:40;6.97;;;1.60;;
49592;SDS011;35499;51.482;4.264;2022-08-01T01:57:26;3.58;;;1.77;;
49592;SDS011;35499;51.482;4.264;2022-08-01T02:00:12;4.65;;;1.88;;
49592;SDS011;35499;51.482;4.264;2022-08-01T02:02:56;3.63;;;1.35;;
49592;SDS011;35499;51.482;4.264;2022-08-01T02:05:40;6.00;;;1.63;;
49592;SDS011;35499;51.482;4.264;2022-08-01T02:08:25;3.20;;;1.42;;
49592;SDS011;35499;51.482;4.264;2022-08-01T02:11:10;5.13;;;1.60;;
49592;SDS011;35499;51.482;4.264;2022-08-01T02:14:04;2.55;;;1.42;;
49592;SDS011;35499;51.482;4.264;2022-08-01T02:16:52;3.20;;;1.42;;
49592;SDS011;35499;51.482;4.264;2022-08-01T02:19:36;4.20;;;1.73;;
49592;SDS011;35499;51.482;4.264;2022-08-01T02:22:26;2.35;;;1.27;;
49592;SDS011;35499;51.482;4.264;2022-08-01T02:25:16;2.95;;;1.38;;
49592;SDS011;35499;51.482;4.264;2022-08-01T02:28:04;3.13;;;1.10;;
49592;SDS011;35499;51.482;4.264;2022-08-01T02:30:48;3.90;;;1.20;;
49592;SDS011;35499;51.482;4.264;2022-08-01T02:33:39;2.65;;;1.20;;
49592;SDS011;35499;51.482;4.264;2022-08-01T02:36:25;2.45;;;1.15;;
49592;SDS011;35499;51.482;4.264;2022-08-01T02:39:11;2.72;;;1.27;;
49592;SDS011;35499;51.482;4.264;2022-08-01T02:41:57;4.35;;;1.33;;
49592;SDS011;35499;51.482;4.264;2022-08-01T02:44:41;3.05;;;1.50;;
49592;SDS011;35499;51.482;4.264;2022-08-01T02:47:26;4.28;;;1.92;;
49592;SDS011;35499;51.482;4.264;2022-08-01T02:50:12;3.40;;;1.90;;
49592;SDS011;35499;51.482;4.264;2022-08-01T02:52:57;5.07;;;1.92;;
49592;SDS011;35499;51.482;4.264;2022-08-01T02:55:42;3.83;;;1.90;;
49592;SDS011;35499;51.482;4.264;2022-08-01T02:58:26;4.15;;;2.30;;
49592;SDS011;35499;51.482;4.264;2022-08-01T03:01:10;5.22;;;2.40;;
49592;SDS011;35499;51.482;4.264;2022-08-01T03:03:55;4.90;;;2.22;;
49592;SDS011;35499;51.482;4.264;2022-08-01T03:06:40;10.48;;;3.13;;
49592;SDS011;35499;51.482;4.264;2022-08-01T03:09:25;5.38;;;2.47;;
49592;SDS011;35499;51.482;4.264;2022-08-01T03:12:14;6.28;;;2.38;;
49592;SDS011;35499;51.482;4.264;2022-08-01T03:14:59;4.88;;;2.80;;
49592;SDS011;35499;51.482;4.264;2022-08-01T03:17:44;4.90;;;2.40;;
49592;SDS011;35499;51.482;4.264;2022-08-01T03:20:30;5.70;;;2.67;;
49592;SDS011;35499;51.482;4.264;2022-08-01T03:23:16;6.03;;;2.60;;
49592;SDS011;35499;51.482;4.264;2022-08-01T03:26:00;5.55;;;2.47;;
49592;SDS011;35499;51.482;4.264;2022-08-01T03:28:46;5.22;;;2.40;;
49592;SDS011;35499;51.482;4.264;2022-08-01T03:31:30;4.40;;;2.17;;
49592;SDS011;35499;51.482;4.264;2022-08-01T03:34:15;4.47;;;2.28;;
49592;SDS011;35499;51.482;4.264;2022-08-01T03:37:03;5.22;;;2.38;;
49592;SDS011;35499;51.482;4.264;2022-08-01T03:42:44;6.47;;;2.20;;
49592;SDS011;35499;51.482;4.264;2022-08-01T03:45:36;3.88;;;1.95;;
49592;SDS011;35499;51.482;4.264;2022-08-01T03:48:22;4.60;;;2.22;;
49592;SDS011;35499;51.482;4.264;2022-08-01T03:51:07;5.32;;;2.10;;
49592;SDS011;35499;51.482;4.264;2022-08-01T03:53:52;4.88;;;2.03;;
49592;SDS011;35499;51.482;4.264;2022-08-01T03:56:37;6.47;;;2.53;;
49592;SDS011;35499;51.482;4.264;2022-08-01T03:59:21;4.18;;;2.10;;
49592;SDS011;35499;51.482;4.264;2022-08-01T04:02:08;3.85;;;2.08;;
49592;SDS011;35499;51.482;4.264;2022-08-01T04:04:54;7.38;;;2.35;;
49592;SDS011;35499;51.482;4.264;2022-08-01T04:07:38;4.40;;;2.08;;
49592;SDS011;35499;51.482;4.264;2022-08-01T04:10:27;3.17;;;1.60;;
49592;SDS011;35499;51.482;4.264;2022-08-01T04:13:11;5.07;;;1.70;;
49592;SDS011;35499;51.482;4.264;2022-08-01T04:15:55;5.18;;;2.28;;
49592;SDS011;35499;51.482;4.264;2022-08-01T04:18:39;3.88;;;1.95;;
49592;SDS011;35499;51.482;4.264;2022-08-01T04:21:24;4.05;;;1.80;;
49592;SDS011;35499;51.482;4.264;2022-08-01T04:24:15;4.05;;;2.38;;
49592;SDS011;35499;51.482;4.264;2022-08-01T04:27:00;3.97;;;1.88;;
49592;SDS011;35499;51.482;4.264;2022-08-01T04:29:44;4.93;;;2.17;;
49592;SDS011;35499;51.482;4.264;2022-08-01T04:32:31;4.80;;;2.53;;
49592;SDS011;35499;51.482;4.264;2022-08-01T04:35:17;3.80;;;1.87;;
49592;SDS011;35499;51.482;4.264;2022-08-01T04:38:02;4.75;;;2.05;;
49592;SDS011;35499;51.482;4.264;2022-08-01T04:40:46;4.53;;;1.92;;
49592;SDS011;35499;51.482;4.264;2022-08-01T04:43:30;3.92;;;1.80;;
49592;SDS011;35499;51.482;4.264;2022-08-01T04:46:14;3.80;;;1.70;;
49592;SDS011;35499;51.482;4.264;2022-08-01T04:48:59;4.50;;;1.30;;
49592;SDS011;35499;51.482;4.264;2022-08-01T04:51:54;2.85;;;1.20;;
49592;SDS011;35499;51.482;4.264;2022-08-01T04:54:41;3.92;;;1.35;;
49592;SDS011;35499;51.482;4.264;2022-08-01T04:57:25;2.55;;;1.00;;
49592;SDS011;35499;51.482;4.264;2022-08-01T05:00:09;3.60;;;1.17;;
49592;SDS011;35499;51.482;4.264;2022-08-01T05:02:54;2.67;;;1.20;;
49592;SDS011;35499;51.482;4.264;2022-08-01T05:05:38;2.97;;;1.20;;
49592;SDS011;35499;51.482;4.264;2022-08-01T05:08:22;2.47;;;0.95;;
49592;SDS011;35499;51.482;4.264;2022-08-01T05:11:06;2.25;;;1.00;;
49592;SDS011;35499;51.482;4.264;2022-08-01T05:13:50;3.53;;;1.00;;
49592;SDS011;35499;51.482;4.264;2022-08-01T05:16:35;2.78;;;0.95;;
49592;SDS011;35499;51.482;4.264;2022-08-01T05:19:20;2.55;;;1.08;;
49592;SDS011;35499;51.482;4.264;2022-08-01T05:22:05;5.28;;;1.05;;
49592;SDS011;35499;51.482;4.264;2022-08-01T05:24:49;3.00;;;1.02;;
49592;SDS011;35499;51.482;4.264;2022-08-01T05:27:33;3.90;;;1.33;;
49592;SDS011;35499;51.482;4.264;2022-08-01T05:30:21;2.78;;;1.27;;
49592;SDS011;35499;51.482;4.264;2022-08-01T05:33:05;2.47;;;1.27;;
49592;SDS011;35499;51.482;4.264;2022-08-01T05:35:51;3.80;;;2.05;;
49592;SDS011;35499;51.482;4.264;2022-08-01T05:38:35;2.65;;;0.90;;
49592;SDS011;35499;51.482;4.264;2022-08-01T05:41:19;2.40;;;0.88;;
49592;SDS011;35499;51.482;4.264;2022-08-01T05:44:03;2.90;;;0.93;;
49592;SDS011;35499;51.482;4.264;2022-08-01T05:46:47;3.88;;;1.05;;
49592;SDS011;35499;51.482;4.264;2022-08-01T05:49:31;3.58;;;0.82;;
49592;SDS011;35499;51.482;4.264;2022-08-01T05:52:15;3.38;;;0.70;;
49592;SDS011;35499;51.482;4.264;2022-08-01T05:54:59;1.80;;;0.55;;
49592;SDS011;35499;51.482;4.264;2022-08-01T05:57:43;2.40;;;0.85;;
49592;SDS011;35499;51.482;4.264;2022-08-01T06:00:27;2.67;;;0.85;;
49592;SDS011;35499;51.482;4.264;2022-08-01T06:03:11;2.35;;;0.63;;
49592;SDS011;35499;51.482;4.264;2022-08-01T06:05:55;2.58;;;0.50;;
49592;SDS011;35499;51.482;4.264;2022-08-01T06:08:40;2.40;;;0.80;;
49592;SDS011;35499;51.482;4.264;2022-08-01T06:11:24;2.92;;;0.90;;
49592;SDS011;35499;51.482;4.264;2022-08-01T06:14:08;2.78;;;1.00;;
49592;SDS011;35499;51.482;4.264;2022-08-01T06:16:52;2.80;;;0.70;;
49592;SDS011;35499;51.482;4.264;2022-08-01T06:19:36;2.17;;;0.77;;
49592;SDS011;35499;51.482;4.264;2022-08-01T06:22:20;2.75;;;0.60;;
49592;SDS011;35499;51.482;4.264;2022-08-01T06:25:04;2.92;;;0.82;;
49592;SDS011;35499;51.482;4.264;2022-08-01T06:27:49;2.22;;;0.75;;
49592;SDS011;35499;51.482;4.264;2022-08-01T06:30:33;3.13;;;0.98;;
49592;SDS011;35499;51.482;4.264;2022-08-01T06:33:17;3.40;;;1.15;;
49592;SDS011;35499;51.482;4.264;2022-08-01T06:36:01;3.40;;;1.33;;
49592;SDS011;35499;51.482;4.264;2022-08-01T06:38:45;4.28;;;1.15;;
49592;SDS011;35499;51.482;4.264;2022-08-01T06:41:29;6.65;;;1.15;;
49592;SDS011;35499;51.482;4.264;2022-08-01T06:44:13;4.07;;;1.33;;
49592;SDS011;35499;51.482;4.264;2022-08-01T06:46:57;3.80;;;1.20;;
49592;SDS011;35499;51.482;4.264;2022-08-01T06:49:42;7.15;;;1.25;;
49592;SDS011;35499;51.482;4.264;2022-08-01T06:52:26;5.15;;;1.30;;
49592;SDS011;35499;51.482;4.264;2022-08-01T06:55:10;4.65;;;2.03;;
49592;SDS011;35499;51.482;4.264;2022-08-01T06:57:54;4.10;;;1.30;;
49592;SDS011;35499;51.482;4.264;2022-08-01T07:00:38;3.67;;;1.20;;
49592;SDS011;35499;51.482;4.264;2022-08-01T07:03:22;6.75;;;1.85;;
49592;SDS011;35499;51.482;4.264;2022-08-01T07:06:06;5.30;;;1.92;;
49592;SDS011;35499;51.482;4.264;2022-08-01T07:08:51;6.60;;;1.88;;
49592;SDS011;35499;51.482;4.264;2022-08-01T07:11:35;5.18;;;1.15;;
49592;SDS011;35499;51.482;4.264;2022-08-01T07:14:19;3.80;;;1.45;;
49592;SDS011;35499;51.482;4.264;2022-08-01T07:17:03;5.25;;;1.63;;
49592;SDS011;35499;51.482;4.264;2022-08-01T07:19:47;3.33;;;1.23;;
49592;SDS011;35499;51.482;4.264;2022-08-01T07:22:31;4.30;;;1.77;;
49592;SDS011;35499;51.482;4.264;2022-08-01T07:25:15;2.85;;;1.23;;
49592;SDS011;35499;51.482;4.264;2022-08-01T07:28:03;2.92;;;1.45;;
49592;SDS011;35499;51.482;4.264;2022-08-01T07:30:46;7.85;;;1.65;;
49592;SDS011;35499;51.482;4.264;2022-08-01T07:33:30;3.55;;;1.45;;
49592;SDS011;35499;51.482;4.264;2022-08-01T07:36:18;3.03;;;1.45;;
49592;SDS011;35499;51.482;4.264;2022-08-01T07:39:02;4.68;;;1.67;;
49592;SDS011;35499;51.482;4.264;2022-08-01T07:41:46;6.63;;;1.38;;
49592;SDS011;35499;51.482;4.264;2022-08-01T07:44:30;3.45;;;1.48;;
49592;SDS011;35499;51.482;4.264;2022-08-01T07:47:14;5.32;;;1.60;;
49592;SDS011;35499;51.482;4.264;2022-08-01T07:53:20;4.07;;;1.75;;
49592;SDS011;35499;51.482;4.264;2022-08-01T07:56:04;4.75;;;1.60;;
49592;SDS011;35499;51.482;4.264;2022-08-01T08:02:11;3.65;;;1.05;;
49592;SDS011;35499;51.482;4.264;2022-08-01T08:04:55;3.65;;;1.92;;
49592;SDS011;35499;51.482;4.264;2022-08-01T08:07:39;4.00;;;1.30;;
49592;SDS011;35499;51.482;4.264;2022-08-01T08:10:23;3.97;;;1.33;;
49592;SDS011;35499;51.482;4.264;2022-08-01T08:13:07;3.67;;;1.30;;
49592;SDS011;35499;51.482;4.264;2022-08-01T08:15:51;3.35;;;1.20;;
49592;SDS011;35499;51.482;4.264;2022-08-01T08:18:36;5.05;;;1.33;;
49592;SDS011;35499;51.482;4.264;2022-08-01T08:21:21;4.47;;;1.33;;
49592;SDS011;35499;51.482;4.264;2022-08-01T08:24:05;4.65;;;1.83;;
49592;SDS011;35499;51.482;4.264;2022-08-01T08:27:06;4.72;;;1.45;;
49592;SDS011;35499;51.482;4.264;2022-08-01T08:29:51;3.45;;;1.27;;
49592;SDS011;35499;51.482;4.264;2022-08-01T08:32:35;4.85;;;1.33;;
49592;SDS011;35499;51.482;4.264;2022-08-01T08:35:19;4.88;;;1.50;;
49592;SDS011;35499;51.482;4.264;2022-08-01T08:38:03;3.50;;;1.40;;
49592;SDS011;35499;51.482;4.264;2022-08-01T08:40:47;7.28;;;1.48;;
49592;SDS011;35499;51.482;4.264;2022-08-01T08:43:31;4.03;;;2.05;;
49592;SDS011;35499;51.482;4.264;2022-08-01T08:46:15;3.65;;;1.88;;
49592;SDS011;35499;51.482;4.264;2022-08-01T08:49:00;3.55;;;1.08;;
49592;SDS011;35499;51.482;4.264;2022-08-01T08:51:44;3.03;;;1.10;;
49592;SDS011;35499;51.482;4.264;2022-08-01T08:54:30;3.90;;;1.70;;
49592;SDS011;35499;51.482;4.264;2022-08-01T08:57:15;3.10;;;1.30;;
49592;SDS011;35499;51.482;4.264;2022-08-01T09:00:00;3.63;;;1.30;;
49592;SDS011;35499;51.482;4.264;2022-08-01T09:02:45;5.68;;;1.58;;
49592;SDS011;35499;51.482;4.264;2022-08-01T09:05:29;2.88;;;1.02;;
49592;SDS011;35499;51.482;4.264;2022-08-01T09:08:13;5.13;;;1.40;;
49592;SDS011;35499;51.482;4.264;2022-08-01T09:10:57;2.42;;;1.05;;
49592;SDS011;35499;51.482;4.264;2022-08-01T09:13:41;3.42;;;1.40;;
49592;SDS011;35499;51.482;4.264;2022-08-01T09:16:26;3.20;;;1.00;;
49592;SDS011;35499;51.482;4.264;2022-08-01T09:24:42;3.28;;;1.02;;
49592;SDS011;35499;51.482;4.264;2022-08-01T09:27:26;7.30;;;1.80;;
49592;SDS011;35499;51.482;4.264;2022-08-01T09:30:11;2.97;;;1.13;;
49592;SDS011;35499;51.482;4.264;2022-08-01T09:32:59;4.18;;;1.33;;
49592;SDS011;35499;51.482;4.264;2022-08-01T09:35:46;2.65;;;1.00;;
49592;SDS011;35499;51.482;4.264;2022-08-01T09:38:37;5.18;;;1.27;;
49592;SDS011;35499;51.482;4.264;2022-08-01T09:41:29;5.72;;;1.38;;
49592;SDS011;35499;51.482;4.264;2022-08-01T09:44:14;3.30;;;1.08;;
49592;SDS011;35499;51.482;4.264;2022-08-01T09:49:44;3.63;;;1.10;;
49592;SDS011;35499;51.482;4.264;2022-08-01T09:52:28;3.35;;;1.08;;
49592;SDS011;35499;51.482;4.264;2022-08-01T09:55:12;4.18;;;1.20;;
49592;SDS011;35499;51.482;4.264;2022-08-01T09:58:04;3.03;;;1.08;;
49592;SDS011;35499;51.482;4.264;2022-08-01T10:00:58;4.22;;;1.77;;
49592;SDS011;35499;51.482;4.264;2022-08-01T10:03:43;5.72;;;1.60;;
49592;SDS011;35499;51.482;4.264;2022-08-01T10:06:27;3.72;;;1.40;;
49592;SDS011;35499;51.482;4.264;2022-08-01T10:09:12;4.25;;;1.38;;
49592;SDS011;35499;51.482;4.264;2022-08-01T10:11:56;3.55;;;1.20;;
49592;SDS011;35499;51.482;4.264;2022-08-01T10:14:42;3.72;;;1.33;;
49592;SDS011;35499;51.482;4.264;2022-08-01T10:17:26;2.97;;;1.30;;
49592;SDS011;35499;51.482;4.264;2022-08-01T10:20:11;3.42;;;1.20;;
49592;SDS011;35499;51.482;4.264;2022-08-01T10:22:55;2.97;;;1.17;;
49592;SDS011;35499;51.482;4.264;2022-08-01T10:25:40;7.00;;;1.27;;
49592;SDS011;35499;51.482;4.264;2022-08-01T10:28:27;4.38;;;1.95;;
49592;SDS011;35499;51.482;4.264;2022-08-01T10:31:13;3.55;;;1.17;;
49592;SDS011;35499;51.482;4.264;2022-08-01T10:33:58;2.58;;;0.90;;
49592;SDS011;35499;51.482;4.264;2022-08-01T10:36:42;2.47;;;1.10;;
49592;SDS011;35499;51.482;4.264;2022-08-01T10:39:26;1.98;;;0.98;;
49592;SDS011;35499;51.482;4.264;2022-08-01T10:42:13;1.95;;;0.93;;
49592;SDS011;35499;51.482;4.264;2022-08-01T10:44:57;2.03;;;1.05;;
49592;SDS011;35499;51.482;4.264;2022-08-01T10:50:44;3.40;;;1.10;;
49592;SDS011;35499;51.482;4.264;2022-08-01T10:53:29;3.45;;;1.17;;
49592;SDS011;35499;51.482;4.264;2022-08-01T10:56:13;2.92;;;1.35;;
49592;SDS011;35499;51.482;4.264;2022-08-01T10:59:00;4.53;;;1.10;;
49592;SDS011;35499;51.482;4.264;2022-08-01T11:01:44;2.53;;;0.90;;
49592;SDS011;35499;51.482;4.264;2022-08-01T11:07:42;2.60;;;0.90;;
49592;SDS011;35499;51.482;4.264;2022-08-01T11:10:42;3.60;;;1.05;;
49592;SDS011;35499;51.482;4.264;2022-08-01T11:16:33;3.42;;;1.10;;
49592;SDS011;35499;51.482;4.264;2022-08-01T11:19:17;3.22;;;0.80;;
49592;SDS011;35499;51.482;4.264;2022-08-01T11:22:01;2.10;;;0.80;;
49592;SDS011;35499;51.482;4.264;2022-08-01T11:27:31;2.88;;;1.15;;
49592;SDS011;35499;51.482;4.264;2022-08-01T11:33:00;3.28;;;1.10;;
49592;SDS011;35499;51.482;4.264;2022-08-01T11:41:31;4.05;;;2.00;;
49592;SDS011;35499;51.482;4.264;2022-08-01T11:44:16;5.47;;;2.03;;
49592;SDS011;35499;51.482;4.264;2022-08-01T11:47:05;5.55;;;2.13;;
49592;SDS011;35499;51.482;4.264;2022-08-01T11:49:51;4.53;;;2.17;;
49592;SDS011;35499;51.482;4.264;2022-08-01T11:52:39;4.40;;;2.03;;
49592;SDS011;35499;51.482;4.264;2022-08-01T11:55:26;3.60;;;1.55;;
49592;SDS011;35499;51.482;4.264;2022-08-01T11:58:11;3.88;;;1.77;;
49592;SDS011;35499;51.482;4.264;2022-08-01T12:00:56;7.03;;;1.90;;
49592;SDS011;35499;51.482;4.264;2022-08-01T12:03:43;4.05;;;1.85;;
49592;SDS011;35499;51.482;4.264;2022-08-01T12:06:27;3.20;;;1.83;;
49592;SDS011;35499;51.482;4.264;2022-08-01T12:09:18;2.65;;;1.58;;
49592;SDS011;35499;51.482;4.264;2022-08-01T12:12:02;4.07;;;2.08;;
49592;SDS011;35499;51.482;4.264;2022-08-01T12:14:52;6.10;;;2.33;;
49592;SDS011;35499;51.482;4.264;2022-08-01T12:17:48;3.80;;;1.80;;
49592;SDS011;35499;51.482;4.264;2022-08-01T12:20:33;4.35;;;2.30;;
49592;SDS011;35499;51.482;4.264;2022-08-01T12:23:17;6.07;;;1.80;;
49592;SDS011;35499;51.482;4.264;2022-08-01T12:26:01;5.25;;;1.92;;
49592;SDS011;35499;51.482;4.264;2022-08-01T12:28:45;4.43;;;1.73;;
49592;SDS011;35499;51.482;4.264;2022-08-01T12:31:35;3.53;;;1.60;;
49592;SDS011;35499;51.482;4.264;2022-08-01T12:34:26;2.80;;;1.50;;
49592;SDS011;35499;51.482;4.264;2022-08-01T12:37:13;4.60;;;1.50;;
49592;SDS011;35499;51.482;4.264;2022-08-01T12:39:57;3.88;;;1.50;;
49592;SDS011;35499;51.482;4.264;2022-08-01T12:42:42;4.45;;;1.48;;
49592;SDS011;35499;51.482;4.264;2022-08-01T12:45:30;4.32;;;1.30;;
49592;SDS011;35499;51.482;4.264;2022-08-01T12:48:15;3.45;;;1.23;;
49592;SDS011;35499;51.482;4.264;2022-08-01T12:51:00;3.80;;;1.30;;
49592;SDS011;35499;51.482;4.264;2022-08-01T12:53:46;2.60;;;1.10;;
49592;SDS011;35499;51.482;4.264;2022-08-01T12:56:33;2.83;;;0.98;;
49592;SDS011;35499;51.482;4.264;2022-08-01T12:59:21;4.25;;;0.90;;
49592;SDS011;35499;51.482;4.264;2022-08-01T13:02:08;3.70;;;0.93;;
49592;SDS011;35499;51.482;4.264;2022-08-01T13:04:52;2.45;;;0.90;;
49592;SDS011;35499;51.482;4.264;2022-08-01T13:07:36;3.60;;;1.20;;
49592;SDS011;35499;51.482;4.264;2022-08-01T13:10:28;3.28;;;0.85;;
49592;SDS011;35499;51.482;4.264;2022-08-01T13:13:12;3.00;;;0.98;;
49592;SDS011;35499;51.482;4.264;2022-08-01T13:16:03;2.03;;;0.70;;
49592;SDS011;35499;51.482;4.264;2022-08-01T13:18:48;2.75;;;1.60;;
49592;SDS011;35499;51.482;4.264;2022-08-01T13:21:33;2.00;;;0.90;;
49592;SDS011;35499;51.482;4.264;2022-08-01T13:24:22;2.40;;;0.90;;
49592;SDS011;35499;51.482;4.264;2022-08-01T13:27:06;3.08;;;0.93;;
49592;SDS011;35499;51.482;4.264;2022-08-01T13:29:50;3.85;;;0.90;;
49592;SDS011;35499;51.482;4.264;2022-08-01T13:32:36;3.43;;;1.33;;
49592;SDS011;35499;51.482;4.264;2022-08-01T13:35:20;2.20;;;0.95;;
49592;SDS011;35499;51.482;4.264;2022-08-01T13:38:04;3.92;;;1.10;;
49592;SDS011;35499;51.482;4.264;2022-08-01T13:40:48;2.33;;;0.85;;
49592;SDS011;35499;51.482;4.264;2022-08-01T13:43:40;2.30;;;1.00;;
49592;SDS011;35499;51.482;4.264;2022-08-01T13:46:24;4.15;;;1.08;;
49592;SDS011;35499;51.482;4.264;2022-08-01T13:49:09;2.83;;;1.05;;
49592;SDS011;35499;51.482;4.264;2022-08-01T13:51:54;2.72;;;1.00;;
49592;SDS011;35499;51.482;4.264;2022-08-01T13:54:37;2.55;;;1.15;;
49592;SDS011;35499;51.482;4.264;2022-08-01T13:57:21;4.10;;;1.08;;
49592;SDS011;35499;51.482;4.264;2022-08-01T14:00:06;2.38;;;1.00;;
49592;SDS011;35499;51.482;4.264;2022-08-01T14:02:50;4.38;;;0.90;;
49592;SDS011;35499;51.482;4.264;2022-08-01T14:05:35;2.60;;;0.73;;
49592;SDS011;35499;51.482;4.264;2022-08-01T14:11:03;2.65;;;1.00;;
49592;SDS011;35499;51.482;4.264;2022-08-01T14:13:47;2.30;;;0.90;;
49592;SDS011;35499;51.482;4.264;2022-08-01T14:16:31;3.95;;;1.20;;
49592;SDS011;35499;51.482;4.264;2022-08-01T14:19:15;2.33;;;0.85;;
49592;SDS011;35499;51.482;4.264;2022-08-01T14:22:01;2.50;;;1.08;;
49592;SDS011;35499;51.482;4.264;2022-08-01T14:24:45;2.75;;;0.85;;
49592;SDS011;35499;51.482;4.264;2022-08-01T14:27:29;2.60;;;0.88;;
49592;SDS011;35499;51.482;4.264;2022-08-01T14:30:14;5.03;;;1.33;;
49592;SDS011;35499;51.482;4.264;2022-08-01T14:35:42;3.25;;;1.27;;
49592;SDS011;35499;51.482;4.264;2022-08-01T14:38:26;2.60;;;1.00;;
49592;SDS011;35499;51.482;4.264;2022-08-01T14:41:10;2.10;;;0.80;;
49592;SDS011;35499;51.482;4.264;2022-08-01T14:43:54;2.72;;;0.90;;
49592;SDS011;35499;51.482;4.264;2022-08-01T14:46:38;4.13;;;1.10;;
49592;SDS011;35499;51.482;4.264;2022-08-01T14:49:22;3.85;;;0.80;;
49592;SDS011;35499;51.482;4.264;2022-08-01T14:52:06;2.70;;;1.00;;
49592;SDS011;35499;51.482;4.264;2022-08-01T14:54:50;1.95;;;0.80;;
49592;SDS011;35499;51.482;4.264;2022-08-01T14:57:35;2.88;;;0.95;;
49592;SDS011;35499;51.482;4.264;2022-08-01T15:00:19;3.35;;;1.00;;
49592;SDS011;35499;51.482;4.264;2022-08-01T15:03:03;2.17;;;0.90;;
49592;SDS011;35499;51.482;4.264;2022-08-01T15:05:47;4.50;;;1.00;;
49592;SDS011;35499;51.482;4.264;2022-08-01T15:08:31;2.30;;;0.77;;
49592;SDS011;35499;51.482;4.264;2022-08-01T15:11:16;6.85;;;3.10;;
49592;SDS011;35499;51.482;4.264;2022-08-01T15:14:00;4.35;;;0.88;;
49592;SDS011;35499;51.482;4.264;2022-08-01T15:17:03;3.28;;;0.85;;
49592;SDS011;35499;51.482;4.264;2022-08-01T15:19:51;4.63;;;1.10;;
49592;SDS011;35499;51.482;4.264;2022-08-01T15:22:35;4.47;;;0.80;;
49592;SDS011;35499;51.482;4.264;2022-08-01T15:25:19;1.75;;;0.70;;
49592;SDS011;35499;51.482;4.264;2022-08-01T15:28:03;3.25;;;1.20;;
49592;SDS011;35499;51.482;4.264;2022-08-01T15:30:47;3.17;;;0.70;;
49592;SDS011;35499;51.482;4.264;2022-08-01T15:33:32;2.50;;;0.90;;
49592;SDS011;35499;51.482;4.264;2022-08-01T15:36:16;3.30;;;0.80;;
49592;SDS011;35499;51.482;4.264;2022-08-01T15:39:00;2.03;;;0.90;;
49592;SDS011;35499;51.482;4.264;2022-08-01T15:41:44;3.75;;;0.77;;
49592;SDS011;35499;51.482;4.264;2022-08-01T15:44:28;5.97;;;1.13;;
49592;SDS011;35499;51.482;4.264;2022-08-01T15:47:12;2.25;;;0.90;;
49592;SDS011;35499;51.482;4.264;2022-08-01T15:49:56;2.33;;;0.90;;
49592;SDS011;35499;51.482;4.264;2022-08-01T15:52:43;3.05;;;0.90;;
49592;SDS011;35499;51.482;4.264;2022-08-01T15:55:27;3.63;;;1.00;;
49592;SDS011;35499;51.482;4.264;2022-08-01T15:58:11;2.33;;;0.80;;
49592;SDS011;35499;51.482;4.264;2022-08-01T16:00:55;4.50;;;1.17;;
49592;SDS011;35499;51.482;4.264;2022-08-01T16:03:39;6.32;;;1.45;;
49592;SDS011;35499;51.482;4.264;2022-08-01T16:06:23;2.92;;;0.95;;
49592;SDS011;35499;51.482;4.264;2022-08-01T16:09:07;3.67;;;0.93;;
49592;SDS011;35499;51.482;4.264;2022-08-01T16:11:51;3.83;;;0.90;;
49592;SDS011;35499;51.482;4.264;2022-08-01T16:14:35;2.65;;;1.13;;
49592;SDS011;35499;51.482;4.264;2022-08-01T16:17:19;4.60;;;1.10;;
49592;SDS011;35499;51.482;4.264;2022-08-01T16:20:03;2.40;;;1.10;;
49592;SDS011;35499;51.482;4.264;2022-08-01T16:22:47;2.60;;;1.10;;
49592;SDS011;35499;51.482;4.264;2022-08-01T16:25:31;3.38;;;0.95;;
49592;SDS011;35499;51.482;4.264;2022-08-01T16:28:16;3.28;;;1.30;;
49592;SDS011;35499;51.482;4.264;2022-08-01T16:31:00;5.75;;;1.40;;
49592;SDS011;35499;51.482;4.264;2022-08-01T16:33:45;2.97;;;1.00;;
49592;SDS011;35499;51.482;4.264;2022-08-01T16:36:30;3.42;;;1.00;;
49592;SDS011;35499;51.482;4.264;2022-08-01T16:39:14;4.20;;;1.27;;
49592;SDS011;35499;51.482;4.264;2022-08-01T16:41:58;2.08;;;0.98;;
49592;SDS011;35499;51.482;4.264;2022-08-01T16:44:42;2.40;;;0.98;;
49592;SDS011;35499;51.482;4.264;2022-08-01T16:47:27;5.97;;;1.00;;
49592;SDS011;35499;51.482;4.264;2022-08-01T16:50:11;6.35;;;1.40;;
49592;SDS011;35499;51.482;4.264;2022-08-01T16:52:55;2.85;;;1.20;;
49592;SDS011;35499;51.482;4.264;2022-08-01T16:55:39;3.33;;;1.20;;
49592;SDS011;35499;51.482;4.264;2022-08-01T16:58:23;3.40;;;1.10;;
49592;SDS011;35499;51.482;4.264;2022-08-01T17:01:07;3.47;;;1.05;;
49592;SDS011;35499;51.482;4.264;2022-08-01T17:03:51;3.28;;;1.17;;
49592;SDS011;35499;51.482;4.264;2022-08-01T17:06:35;2.95;;;1.20;;
49592;SDS011;35499;51.482;4.264;2022-08-01T17:09:19;2.83;;;1.33;;
49592;SDS011;35499;51.482;4.264;2022-08-01T17:12:03;3.58;;;1.30;;
49592;SDS011;35499;51.482;4.264;2022-08-01T17:14:47;5.82;;;1.52;;
49592;SDS011;35499;51.482;4.264;2022-08-01T17:17:31;3.83;;;1.20;;
49592;SDS011;35499;51.482;4.264;2022-08-01T17:20:15;5.25;;;1.60;;
49592;SDS011;35499;51.482;4.264;2022-08-01T17:22:59;4.63;;;1.80;;
49592;SDS011;35499;51.482;4.264;2022-08-01T17:25:44;2.97;;;1.35;;
49592;SDS011;35499;51.482;4.264;2022-08-01T17:28:28;2.97;;;1.30;;
49592;SDS011;35499;51.482;4.264;2022-08-01T17:31:12;3.78;;;1.50;;
49592;SDS011;35499;51.482;4.264;2022-08-01T17:33:56;4.82;;;1.25;;